Terminal Aerodrome Forecast
Issued by NWS

Home | Current Version | Previous Version | Text Only | Print | Product List | Glossary On
Versions: 1 2 3 4 5 6 7 8 9 10 11 12 13 14
000
FTUS46 KMTR 201700
TAFSJC
TAF
KSJC 201726Z 2018/2118 00000KT P6SM FEW250
     FM202000 31014KT P6SM SCT200
     FM210400 31004KT P6SM SCT200
     FM211000 VRB03KT P6SM SCT200=

USA.gov is the U.S. government's official web portal to all federal, state and local government web resources and services.